sensor_id;sensor_type;location;lat;lon;timestamp;temperature;humidity
4306;DHT22;2166;49.926;8.608;2023-03-14T00:02:38;10.50;80.30
4306;DHT22;2166;49.926;8.608;2023-03-14T00:05:15;10.60;80.30
4306;DHT22;2166;49.926;8.608;2023-03-14T00:13:31;10.50;80.20
4306;DHT22;2166;49.926;8.608;2023-03-14T00:25:39;10.60;80.30
4306;DHT22;2166;49.926;8.608;2023-03-14T00:28:16;10.50;80.30
4306;DHT22;2166;49.926;8.608;2023-03-14T00:30:48;10.50;80.20
4306;DHT22;2166;49.926;8.608;2023-03-14T00:33:18;10.40;80.30
4306;DHT22;2166;49.926;8.608;2023-03-14T00:36:08;10.40;80.40
4306;DHT22;2166;49.926;8.608;2023-03-14T00:38:41;10.50;80.40
4306;DHT22;2166;49.926;8.608;2023-03-14T00:41:18;10.50;80.40
4306;DHT22;2166;49.926;8.608;2023-03-14T00:46:26;10.60;80.30
4306;DHT22;2166;49.926;8.608;2023-03-14T00:49:00;10.60;80.30
4306;DHT22;2166;49.926;8.608;2023-03-14T00:51:30;10.60;80.20
4306;DHT22;2166;49.926;8.608;2023-03-14T00:53:59;10.60;80.20
4306;DHT22;2166;49.926;8.608;2023-03-14T00:56:30;10.60;80.10
4306;DHT22;2166;49.926;8.608;2023-03-14T01:04:10;10.50;80.20
4306;DHT22;2166;49.926;8.608;2023-03-14T01:06:42;10.50;80.20
4306;DHT22;2166;49.926;8.608;2023-03-14T01:09:11;10.50;80.20
4306;DHT22;2166;49.926;8.608;2023-03-14T01:19:41;10.40;80.40
4306;DHT22;2166;49.926;8.608;2023-03-14T01:22:11;10.40;80.50
4306;DHT22;2166;49.926;8.608;2023-03-14T01:24:40;10.40;80.50
4306;DHT22;2166;49.926;8.608;2023-03-14T01:27:08;10.50;80.30
4306;DHT22;2166;49.926;8.608;2023-03-14T01:29:36;10.50;80.30
4306;DHT22;2166;49.926;8.608;2023-03-14T01:32:05;10.50;80.20
4306;DHT22;2166;49.926;8.608;2023-03-14T01:34:33;10.50;80.00
4306;DHT22;2166;49.926;8.608;2023-03-14T01:37:04;10.50;80.00
4306;DHT22;2166;49.926;8.608;2023-03-14T01:42:27;10.60;79.90
4306;DHT22;2166;49.926;8.608;2023-03-14T01:44:57;10.80;79.60
4306;DHT22;2166;49.926;8.608;2023-03-14T01:47:27;10.80;79.50
4306;DHT22;2166;49.926;8.608;2023-03-14T01:49:58;10.90;79.40
4306;DHT22;2166;49.926;8.608;2023-03-14T01:52:31;10.90;79.30
4306;DHT22;2166;49.926;8.608;2023-03-14T01:55:04;10.90;79.20
4306;DHT22;2166;49.926;8.608;2023-03-14T02:00:13;11.00;79.20
4306;DHT22;2166;49.926;8.608;2023-03-14T02:02:44;11.00;79.10
4306;DHT22;2166;49.926;8.608;2023-03-14T02:05:19;11.00;79.10
4306;DHT22;2166;49.926;8.608;2023-03-14T02:08:04;11.00;79.10
4306;DHT22;2166;49.926;8.608;2023-03-14T02:10:41;11.10;79.00
4306;DHT22;2166;49.926;8.608;2023-03-14T02:13:11;11.10;79.00
4306;DHT22;2166;49.926;8.608;2023-03-14T02:15:58;11.10;79.00
4306;DHT22;2166;49.926;8.608;2023-03-14T02:18:39;11.10;79.00
4306;DHT22;2166;49.926;8.608;2023-03-14T02:21:30;11.10;78.90
4306;DHT22;2166;49.926;8.608;2023-03-14T02:24:07;11.00;79.20
4306;DHT22;2166;49.926;8.608;2023-03-14T02:26:44;11.00;79.10
4306;DHT22;2166;49.926;8.608;2023-03-14T02:29:15;11.00;79.10
4306;DHT22;2166;49.926;8.608;2023-03-14T02:31:44;11.00;79.10
4306;DHT22;2166;49.926;8.608;2023-03-14T02:34:12;11.00;79.10
4306;DHT22;2166;49.926;8.608;2023-03-14T02:36:41;11.00;79.20
4306;DHT22;2166;49.926;8.608;2023-03-14T02:39:10;10.90;79.20
4306;DHT22;2166;49.926;8.608;2023-03-14T02:41:43;10.90;79.20
4306;DHT22;2166;49.926;8.608;2023-03-14T02:44:17;10.90;79.20
4306;DHT22;2166;49.926;8.608;2023-03-14T02:46:47;10.90;79.40
4306;DHT22;2166;49.926;8.608;2023-03-14T02:49:15;10.90;79.50
4306;DHT22;2166;49.926;8.608;2023-03-14T02:51:45;10.80;79.50
4306;DHT22;2166;49.926;8.608;2023-03-14T02:54:14;10.70;79.60
4306;DHT22;2166;49.926;8.608;2023-03-14T02:56:43;10.60;79.70
4306;DHT22;2166;49.926;8.608;2023-03-14T02:59:12;10.60;79.70
4306;DHT22;2166;49.926;8.608;2023-03-14T03:02:08;10.60;79.60
4306;DHT22;2166;49.926;8.608;2023-03-14T03:04:36;10.60;79.70
4306;DHT22;2166;49.926;8.608;2023-03-14T03:07:05;10.60;79.70
4306;DHT22;2166;49.926;8.608;2023-03-14T03:09:33;10.60;79.70
4306;DHT22;2166;49.926;8.608;2023-03-14T03:12:02;10.60;79.70
4306;DHT22;2166;49.926;8.608;2023-03-14T03:14:31;10.60;79.70
4306;DHT22;2166;49.926;8.608;2023-03-14T03:17:02;10.60;79.70
4306;DHT22;2166;49.926;8.608;2023-03-14T03:19:32;10.70;79.70
4306;DHT22;2166;49.926;8.608;2023-03-14T03:22:01;10.80;79.70
4306;DHT22;2166;49.926;8.608;2023-03-14T03:24:29;10.90;79.50
4306;DHT22;2166;49.926;8.608;2023-03-14T03:26:57;11.00;79.40
4306;DHT22;2166;49.926;8.608;2023-03-14T03:29:25;11.00;79.40
4306;DHT22;2166;49.926;8.608;2023-03-14T03:31:54;11.00;79.40
4306;DHT22;2166;49.926;8.608;2023-03-14T03:34:22;10.90;79.40
4306;DHT22;2166;49.926;8.608;2023-03-14T03:36:57;10.90;79.40
4306;DHT22;2166;49.926;8.608;2023-03-14T03:39:27;10.90;79.30
4306;DHT22;2166;49.926;8.608;2023-03-14T03:41:56;10.80;79.40
4306;DHT22;2166;49.926;8.608;2023-03-14T03:44:24;10.80;79.50
4306;DHT22;2166;49.926;8.608;2023-03-14T03:46:52;10.70;79.50
4306;DHT22;2166;49.926;8.608;2023-03-14T03:49:21;10.70;79.50
4306;DHT22;2166;49.926;8.608;2023-03-14T03:51:49;10.80;79.40
4306;DHT22;2166;49.926;8.608;2023-03-14T03:54:20;10.80;79.30
4306;DHT22;2166;49.926;8.608;2023-03-14T03:56:48;10.80;79.20
4306;DHT22;2166;49.926;8.608;2023-03-14T03:59:17;10.80;79.00
4306;DHT22;2166;49.926;8.608;2023-03-14T04:01:47;10.90;78.90
4306;DHT22;2166;49.926;8.608;2023-03-14T04:04:15;10.90;78.60
4306;DHT22;2166;49.926;8.608;2023-03-14T04:06:45;10.90;78.80
4306;DHT22;2166;49.926;8.608;2023-03-14T04:09:13;10.90;78.60
4306;DHT22;2166;49.926;8.608;2023-03-14T04:11:58;10.90;78.70
4306;DHT22;2166;49.926;8.608;2023-03-14T04:14:53;10.90;78.30
4306;DHT22;2166;49.926;8.608;2023-03-14T04:17:21;10.90;78.10
4306;DHT22;2166;49.926;8.608;2023-03-14T04:19:50;11.00;78.00
4306;DHT22;2166;49.926;8.608;2023-03-14T04:22:24;11.10;77.60
4306;DHT22;2166;49.926;8.608;2023-03-14T04:24:53;11.10;77.30
4306;DHT22;2166;49.926;8.608;2023-03-14T04:27:23;11.20;77.40
4306;DHT22;2166;49.926;8.608;2023-03-14T04:29:53;11.20;77.20
4306;DHT22;2166;49.926;8.608;2023-03-14T04:32:38;11.10;77.20
4306;DHT22;2166;49.926;8.608;2023-03-14T04:35:07;11.00;77.20
4306;DHT22;2166;49.926;8.608;2023-03-14T04:37:38;11.00;77.50
4306;DHT22;2166;49.926;8.608;2023-03-14T04:40:08;11.10;77.50
4306;DHT22;2166;49.926;8.608;2023-03-14T04:42:39;11.00;77.50
4306;DHT22;2166;49.926;8.608;2023-03-14T04:45:07;11.10;77.40
4306;DHT22;2166;49.926;8.608;2023-03-14T04:47:38;11.10;77.30
4306;DHT22;2166;49.926;8.608;2023-03-14T04:50:08;11.10;77.10
4306;DHT22;2166;49.926;8.608;2023-03-14T04:52:39;11.10;77.00
4306;DHT22;2166;49.926;8.608;2023-03-14T04:55:07;11.10;77.10
4306;DHT22;2166;49.926;8.608;2023-03-14T04:57:38;11.10;76.90
4306;DHT22;2166;49.926;8.608;2023-03-14T05:00:11;11.10;76.90
4306;DHT22;2166;49.926;8.608;2023-03-14T05:02:46;11.10;77.00
4306;DHT22;2166;49.926;8.608;2023-03-14T05:05:43;11.10;77.00
4306;DHT22;2166;49.926;8.608;2023-03-14T05:08:30;11.10;77.10
4306;DHT22;2166;49.926;8.608;2023-03-14T05:11:27;11.10;77.10
4306;DHT22;2166;49.926;8.608;2023-03-14T05:14:20;11.00;77.00
4306;DHT22;2166;49.926;8.608;2023-03-14T05:17:10;11.00;76.90
4306;DHT22;2166;49.926;8.608;2023-03-14T05:20:02;11.00;77.00
4306;DHT22;2166;49.926;8.608;2023-03-14T05:23:04;11.10;76.80
4306;DHT22;2166;49.926;8.608;2023-03-14T05:25:55;11.10;76.90
4306;DHT22;2166;49.926;8.608;2023-03-14T05:28:51;11.10;77.00
4306;DHT22;2166;49.926;8.608;2023-03-14T05:31:32;11.10;76.90
4306;DHT22;2166;49.926;8.608;2023-03-14T05:34:24;11.10;76.80
4306;DHT22;2166;49.926;8.608;2023-03-14T05:37:14;11.10;76.70
4306;DHT22;2166;49.926;8.608;2023-03-14T05:40:11;11.20;76.60
4306;DHT22;2166;49.926;8.608;2023-03-14T05:42:54;11.10;76.70
4306;DHT22;2166;49.926;8.608;2023-03-14T05:45:34;11.20;76.80
4306;DHT22;2166;49.926;8.608;2023-03-14T05:48:13;11.20;76.70
4306;DHT22;2166;49.926;8.608;2023-03-14T05:50:58;11.20;76.70
4306;DHT22;2166;49.926;8.608;2023-03-14T05:54:08;11.20;76.70
4306;DHT22;2166;49.926;8.608;2023-03-14T05:56:55;11.20;76.70
4306;DHT22;2166;49.926;8.608;2023-03-14T05:59:44;11.20;76.70
4306;DHT22;2166;49.926;8.608;2023-03-14T06:02:32;11.20;76.70
4306;DHT22;2166;49.926;8.608;2023-03-14T06:05:12;11.20;76.90
4306;DHT22;2166;49.926;8.608;2023-03-14T06:07:40;11.10;76.80
4306;DHT22;2166;49.926;8.608;2023-03-14T06:10:10;11.10;76.80
4306;DHT22;2166;49.926;8.608;2023-03-14T06:12:38;11.10;76.90
4306;DHT22;2166;49.926;8.608;2023-03-14T06:15:07;11.10;76.70
4306;DHT22;2166;49.926;8.608;2023-03-14T06:17:35;11.10;76.70
4306;DHT22;2166;49.926;8.608;2023-03-14T06:20:09;11.10;76.60
4306;DHT22;2166;49.926;8.608;2023-03-14T06:22:39;11.10;76.70
4306;DHT22;2166;49.926;8.608;2023-03-14T06:25:10;11.10;76.70
4306;DHT22;2166;49.926;8.608;2023-03-14T06:27:39;11.10;76.70
4306;DHT22;2166;49.926;8.608;2023-03-14T06:30:08;11.10;76.60
4306;DHT22;2166;49.926;8.608;2023-03-14T06:32:38;11.10;76.70
4306;DHT22;2166;49.926;8.608;2023-03-14T06:35:10;11.10;76.70
4306;DHT22;2166;49.926;8.608;2023-03-14T06:37:42;11.10;76.70
4306;DHT22;2166;49.926;8.608;2023-03-14T06:40:10;11.10;76.70
4306;DHT22;2166;49.926;8.608;2023-03-14T06:42:49;11.10;76.60
4306;DHT22;2166;49.926;8.608;2023-03-14T06:45:19;11.10;76.80
4306;DHT22;2166;49.926;8.608;2023-03-14T06:47:48;11.10;76.70
4306;DHT22;2166;49.926;8.608;2023-03-14T06:50:21;11.10;76.80
4306;DHT22;2166;49.926;8.608;2023-03-14T06:52:51;11.10;76.80
4306;DHT22;2166;49.926;8.608;2023-03-14T06:55:23;11.10;76.70
4306;DHT22;2166;49.926;8.608;2023-03-14T06:57:53;11.10;76.60
4306;DHT22;2166;49.926;8.608;2023-03-14T07:00:21;11.10;76.70
4306;DHT22;2166;49.926;8.608;2023-03-14T07:02:53;11.10;76.60
4306;DHT22;2166;49.926;8.608;2023-03-14T07:05:31;11.20;76.60
4306;DHT22;2166;49.926;8.608;2023-03-14T07:08:01;11.20;76.70
4306;DHT22;2166;49.926;8.608;2023-03-14T07:10:29;11.20;76.70
4306;DHT22;2166;49.926;8.608;2023-03-14T07:12:57;11.20;76.50
4306;DHT22;2166;49.926;8.608;2023-03-14T07:15:29;11.20;76.60
4306;DHT22;2166;49.926;8.608;2023-03-14T07:18:02;11.20;76.40
4306;DHT22;2166;49.926;8.608;2023-03-14T07:20:31;11.20;76.60
4306;DHT22;2166;49.926;8.608;2023-03-14T07:23:02;11.30;76.50
4306;DHT22;2166;49.926;8.608;2023-03-14T07:25:37;11.40;76.30
4306;DHT22;2166;49.926;8.608;2023-03-14T07:28:06;11.40;76.30
4306;DHT22;2166;49.926;8.608;2023-03-14T07:30:36;11.30;76.20
4306;DHT22;2166;49.926;8.608;2023-03-14T07:33:11;11.40;76.30
4306;DHT22;2166;49.926;8.608;2023-03-14T07:35:39;11.40;76.30
4306;DHT22;2166;49.926;8.608;2023-03-14T07:38:09;11.40;76.40
4306;DHT22;2166;49.926;8.608;2023-03-14T07:40:49;11.40;76.30
4306;DHT22;2166;49.926;8.608;2023-03-14T07:43:18;11.40;76.30
4306;DHT22;2166;49.926;8.608;2023-03-14T07:45:49;11.30;76.30
4306;DHT22;2166;49.926;8.608;2023-03-14T07:48:28;11.40;76.40
4306;DHT22;2166;49.926;8.608;2023-03-14T07:50:57;11.40;76.40
4306;DHT22;2166;49.926;8.608;2023-03-14T07:53:27;11.50;76.40
4306;DHT22;2166;49.926;8.608;2023-03-14T07:55:55;11.50;76.30
4306;DHT22;2166;49.926;8.608;2023-03-14T07:58:24;11.60;76.20
4306;DHT22;2166;49.926;8.608;2023-03-14T08:00:52;11.70;76.00
4306;DHT22;2166;49.926;8.608;2023-03-14T08:03:21;11.80;76.10
4306;DHT22;2166;49.926;8.608;2023-03-14T08:05:49;11.80;76.00
4306;DHT22;2166;49.926;8.608;2023-03-14T08:08:18;11.70;76.00
4306;DHT22;2166;49.926;8.608;2023-03-14T08:10:48;11.60;76.30
4306;DHT22;2166;49.926;8.608;2023-03-14T08:13:16;11.50;76.40
4306;DHT22;2166;49.926;8.608;2023-03-14T08:15:47;11.50;76.50
4306;DHT22;2166;49.926;8.608;2023-03-14T08:18:16;11.50;76.60
4306;DHT22;2166;49.926;8.608;2023-03-14T08:20:44;11.60;76.50
4306;DHT22;2166;49.926;8.608;2023-03-14T08:23:13;11.60;76.60
4306;DHT22;2166;49.926;8.608;2023-03-14T08:25:41;11.70;76.50
4306;DHT22;2166;49.926;8.608;2023-03-14T08:28:11;11.90;76.20
4306;DHT22;2166;49.926;8.608;2023-03-14T08:30:40;11.90;76.20
4306;DHT22;2166;49.926;8.608;2023-03-14T08:33:13;12.00;76.20
4306;DHT22;2166;49.926;8.608;2023-03-14T08:35:41;11.90;76.40
4306;DHT22;2166;49.926;8.608;2023-03-14T08:38:10;11.90;76.30
4306;DHT22;2166;49.926;8.608;2023-03-14T08:40:38;11.90;76.30
4306;DHT22;2166;49.926;8.608;2023-03-14T08:43:07;12.10;76.60
4306;DHT22;2166;49.926;8.608;2023-03-14T08:45:37;12.40;76.00
4306;DHT22;2166;49.926;8.608;2023-03-14T08:48:05;12.50;75.50
4306;DHT22;2166;49.926;8.608;2023-03-14T08:50:34;12.50;75.40
4306;DHT22;2166;49.926;8.608;2023-03-14T08:53:03;12.60;75.40
4306;DHT22;2166;49.926;8.608;2023-03-14T08:55:31;12.90;75.40
4306;DHT22;2166;49.926;8.608;2023-03-14T08:58:00;13.70;75.00
4306;DHT22;2166;49.926;8.608;2023-03-14T09:00:29;14.20;73.70
4306;DHT22;2166;49.926;8.608;2023-03-14T09:02:58;14.90;73.50
4306;DHT22;2166;49.926;8.608;2023-03-14T09:05:27;15.10;72.30
4306;DHT22;2166;49.926;8.608;2023-03-14T09:07:55;15.10;73.20
4306;DHT22;2166;49.926;8.608;2023-03-14T09:10:24;15.10;72.00
4306;DHT22;2166;49.926;8.608;2023-03-14T09:12:52;14.50;73.10
4306;DHT22;2166;49.926;8.608;2023-03-14T09:15:21;14.00;73.40
4306;DHT22;2166;49.926;8.608;2023-03-14T09:17:49;13.70;74.20
4306;DHT22;2166;49.926;8.608;2023-03-14T09:20:20;13.50;74.30
4306;DHT22;2166;49.926;8.608;2023-03-14T09:22:48;13.60;74.20
4306;DHT22;2166;49.926;8.608;2023-03-14T09:25:17;13.80;74.30
4306;DHT22;2166;49.926;8.608;2023-03-14T09:27:45;13.70;74.10
4306;DHT22;2166;49.926;8.608;2023-03-14T09:30:14;13.50;74.40
4306;DHT22;2166;49.926;8.608;2023-03-14T09:32:42;13.30;74.60
4306;DHT22;2166;49.926;8.608;2023-03-14T09:35:12;13.30;74.80
4306;DHT22;2166;49.926;8.608;2023-03-14T09:37:42;13.30;74.70
4306;DHT22;2166;49.926;8.608;2023-03-14T09:40:12;13.20;74.90
4306;DHT22;2166;49.926;8.608;2023-03-14T09:42:40;13.00;75.00
4306;DHT22;2166;49.926;8.608;2023-03-14T09:45:11;12.90;75.00
4306;DHT22;2166;49.926;8.608;2023-03-14T09:47:40;13.00;75.30
4306;DHT22;2166;49.926;8.608;2023-03-14T09:50:24;12.90;75.10
4306;DHT22;2166;49.926;8.608;2023-03-14T09:52:56;12.70;75.20
4306;DHT22;2166;49.926;8.608;2023-03-14T09:55:24;12.70;75.60
4306;DHT22;2166;49.926;8.608;2023-03-14T09:57:56;12.50;75.60
4306;DHT22;2166;49.926;8.608;2023-03-14T10:00:26;12.60;76.00
4306;DHT22;2166;49.926;8.608;2023-03-14T10:02:56;12.40;76.00
4306;DHT22;2166;49.926;8.608;2023-03-14T10:05:25;12.30;76.10
4306;DHT22;2166;49.926;8.608;2023-03-14T10:07:56;12.30;76.50
4306;DHT22;2166;49.926;8.608;2023-03-14T10:10:25;12.40;76.50
4306;DHT22;2166;49.926;8.608;2023-03-14T10:12:58;12.50;76.20
4306;DHT22;2166;49.926;8.608;2023-03-14T10:15:29;12.50;76.10
4306;DHT22;2166;49.926;8.608;2023-03-14T10:17:59;12.60;76.00
4306;DHT22;2166;49.926;8.608;2023-03-14T10:20:29;12.60;75.90
4306;DHT22;2166;49.926;8.608;2023-03-14T10:23:02;12.50;76.30
4306;DHT22;2166;49.926;8.608;2023-03-14T10:25:34;12.60;76.10
4306;DHT22;2166;49.926;8.608;2023-03-14T10:28:03;12.70;76.20
4306;DHT22;2166;49.926;8.608;2023-03-14T10:30:38;12.60;76.20
4306;DHT22;2166;49.926;8.608;2023-03-14T10:33:12;12.60;76.30
4306;DHT22;2166;49.926;8.608;2023-03-14T10:35:52;12.60;76.30
4306;DHT22;2166;49.926;8.608;2023-03-14T10:38:24;12.50;76.30
4306;DHT22;2166;49.926;8.608;2023-03-14T10:40:55;12.40;76.60
4306;DHT22;2166;49.926;8.608;2023-03-14T10:43:25;12.40;76.70
4306;DHT22;2166;49.926;8.608;2023-03-14T10:45:55;12.20;77.50
4306;DHT22;2166;49.926;8.608;2023-03-14T10:48:29;12.00;77.80
4306;DHT22;2166;49.926;8.608;2023-03-14T10:51:02;11.80;78.10
4306;DHT22;2166;49.926;8.608;2023-03-14T10:53:38;11.70;78.40
4306;DHT22;2166;49.926;8.608;2023-03-14T10:56:07;11.70;78.70
4306;DHT22;2166;49.926;8.608;2023-03-14T10:58:40;11.70;78.50
4306;DHT22;2166;49.926;8.608;2023-03-14T11:01:12;11.80;78.30
4306;DHT22;2166;49.926;8.608;2023-03-14T11:03:45;11.80;77.90
4306;DHT22;2166;49.926;8.608;2023-03-14T11:06:17;11.90;77.90
4306;DHT22;2166;49.926;8.608;2023-03-14T11:08:48;12.10;77.70
4306;DHT22;2166;49.926;8.608;2023-03-14T11:11:21;12.20;77.60
4306;DHT22;2166;49.926;8.608;2023-03-14T11:13:53;12.30;77.40
4306;DHT22;2166;49.926;8.608;2023-03-14T11:16:27;12.30;77.20
4306;DHT22;2166;49.926;8.608;2023-03-14T11:19:00;12.30;77.50
4306;DHT22;2166;49.926;8.608;2023-03-14T11:21:32;12.20;78.10
4306;DHT22;2166;49.926;8.608;2023-03-14T11:24:10;12.00;78.50
4306;DHT22;2166;49.926;8.608;2023-03-14T11:26:42;11.80;78.80
4306;DHT22;2166;49.926;8.608;2023-03-14T11:29:18;11.70;79.20
4306;DHT22;2166;49.926;8.608;2023-03-14T11:31:47;11.50;79.30
4306;DHT22;2166;49.926;8.608;2023-03-14T11:34:16;11.40;79.50
4306;DHT22;2166;49.926;8.608;2023-03-14T11:36:46;11.50;79.40
4306;DHT22;2166;49.926;8.608;2023-03-14T11:39:19;11.40;79.60
4306;DHT22;2166;49.926;8.608;2023-03-14T11:41:49;11.50;79.60
4306;DHT22;2166;49.926;8.608;2023-03-14T11:44:19;11.50;79.50
4306;DHT22;2166;49.926;8.608;2023-03-14T11:46:48;11.70;79.60
4306;DHT22;2166;49.926;8.608;2023-03-14T11:49:23;11.80;79.00
4306;DHT22;2166;49.926;8.608;2023-03-14T11:51:55;12.00;78.80
4306;DHT22;2166;49.926;8.608;2023-03-14T11:54:28;12.10;78.60
4306;DHT22;2166;49.926;8.608;2023-03-14T11:57:01;12.10;78.90
4306;DHT22;2166;49.926;8.608;2023-03-14T11:59:32;11.80;78.90
4306;DHT22;2166;49.926;8.608;2023-03-14T12:02:02;11.80;79.20
4306;DHT22;2166;49.926;8.608;2023-03-14T12:04:36;11.70;79.30
4306;DHT22;2166;49.926;8.608;2023-03-14T12:07:13;11.40;80.00
4306;DHT22;2166;49.926;8.608;2023-03-14T12:09:44;11.00;80.40
4306;DHT22;2166;49.926;8.608;2023-03-14T12:12:14;10.90;80.60
4306;DHT22;2166;49.926;8.608;2023-03-14T12:14:47;10.90;81.30
4306;DHT22;2166;49.926;8.608;2023-03-14T12:17:20;10.90;79.90
4306;DHT22;2166;49.926;8.608;2023-03-14T12:19:58;10.90;79.30
4306;DHT22;2166;49.926;8.608;2023-03-14T12:22:27;10.80;78.70
4306;DHT22;2166;49.926;8.608;2023-03-14T12:25:00;10.70;78.70
4306;DHT22;2166;49.926;8.608;2023-03-14T12:27:42;10.70;78.40
4306;DHT22;2166;49.926;8.608;2023-03-14T12:30:15;10.60;78.70
4306;DHT22;2166;49.926;8.608;2023-03-14T12:35:34;11.00;77.80
4306;DHT22;2166;49.926;8.608;2023-03-14T12:38:03;11.10;76.00
4306;DHT22;2166;49.926;8.608;2023-03-14T12:40:35;11.30;76.60
4306;DHT22;2166;49.926;8.608;2023-03-14T12:43:10;11.30;75.50
4306;DHT22;2166;49.926;8.608;2023-03-14T12:46:06;11.60;76.40
4306;DHT22;2166;49.926;8.608;2023-03-14T12:48:37;11.90;75.20
4306;DHT22;2166;49.926;8.608;2023-03-14T12:51:12;12.00;74.00
4306;DHT22;2166;49.926;8.608;2023-03-14T12:56:39;12.90;74.80
4306;DHT22;2166;49.926;8.608;2023-03-14T12:59:17;13.00;73.00
4306;DHT22;2166;49.926;8.608;2023-03-14T13:01:54;13.20;72.60
4306;DHT22;2166;49.926;8.608;2023-03-14T13:04:27;13.10;74.00
4306;DHT22;2166;49.926;8.608;2023-03-14T13:07:10;13.20;73.00
4306;DHT22;2166;49.926;8.608;2023-03-14T13:09:50;13.30;71.50
4306;DHT22;2166;49.926;8.608;2023-03-14T13:12:22;13.00;71.60
4306;DHT22;2166;49.926;8.608;2023-03-14T13:14:51;12.80;72.10
4306;DHT22;2166;49.926;8.608;2023-03-14T13:17:22;12.30;73.20
4306;DHT22;2166;49.926;8.608;2023-03-14T13:20:03;12.00;74.10
4306;DHT22;2166;49.926;8.608;2023-03-14T13:22:34;11.70;74.10
4306;DHT22;2166;49.926;8.608;2023-03-14T13:25:06;11.40;75.50
4306;DHT22;2166;49.926;8.608;2023-03-14T13:27:36;11.50;74.60
4306;DHT22;2166;49.926;8.608;2023-03-14T13:30:12;11.30;75.00
4306;DHT22;2166;49.926;8.608;2023-03-14T13:32:43;11.30;75.30
4306;DHT22;2166;49.926;8.608;2023-03-14T13:35:16;11.30;75.70
4306;DHT22;2166;49.926;8.608;2023-03-14T13:37:45;11.10;74.80
4306;DHT22;2166;49.926;8.608;2023-03-14T13:40:19;10.90;75.10
4306;DHT22;2166;49.926;8.608;2023-03-14T13:42:49;10.90;75.30
4306;DHT22;2166;49.926;8.608;2023-03-14T13:45:27;10.60;76.00
4306;DHT22;2166;49.926;8.608;2023-03-14T13:47:55;9.90;77.60
4306;DHT22;2166;49.926;8.608;2023-03-14T13:50:24;9.50;77.90
4306;DHT22;2166;49.926;8.608;2023-03-14T13:52:56;9.30;78.20
4306;DHT22;2166;49.926;8.608;2023-03-14T13:55:25;9.20;78.80
4306;DHT22;2166;49.926;8.608;2023-03-14T13:57:56;9.20;79.50
4306;DHT22;2166;49.926;8.608;2023-03-14T14:00:24;9.30;79.40
4306;DHT22;2166;49.926;8.608;2023-03-14T14:02:54;9.40;79.00
4306;DHT22;2166;49.926;8.608;2023-03-14T14:05:25;9.40;78.90
4306;DHT22;2166;49.926;8.608;2023-03-14T14:07:57;9.40;78.80
4306;DHT22;2166;49.926;8.608;2023-03-14T14:10:26;9.40;78.90
4306;DHT22;2166;49.926;8.608;2023-03-14T14:12:56;9.50;78.40
4306;DHT22;2166;49.926;8.608;2023-03-14T14:15:29;9.70;77.70
4306;DHT22;2166;49.926;8.608;2023-03-14T14:18:08;10.20;77.50
4306;DHT22;2166;49.926;8.608;2023-03-14T14:20:43;11.00;75.90
4306;DHT22;2166;49.926;8.608;2023-03-14T14:23:14;11.80;74.20
4306;DHT22;2166;49.926;8.608;2023-03-14T14:25:45;12.00;73.90
4306;DHT22;2166;49.926;8.608;2023-03-14T14:28:24;12.00;73.90
4306;DHT22;2166;49.926;8.608;2023-03-14T14:31:19;11.90;72.60
4306;DHT22;2166;49.926;8.608;2023-03-14T14:33:58;12.30;74.20
4306;DHT22;2166;49.926;8.608;2023-03-14T14:36:28;12.50;71.90
4306;DHT22;2166;49.926;8.608;2023-03-14T14:39:05;12.00;71.80
4306;DHT22;2166;49.926;8.608;2023-03-14T14:41:40;11.30;72.30
4306;DHT22;2166;49.926;8.608;2023-03-14T14:44:21;11.00;73.80
4306;DHT22;2166;49.926;8.608;2023-03-14T14:46:54;10.60;73.60
4306;DHT22;2166;49.926;8.608;2023-03-14T14:49:33;10.40;73.30
4306;DHT22;2166;49.926;8.608;2023-03-14T14:52:08;10.30;73.30
4306;DHT22;2166;49.926;8.608;2023-03-14T14:54:38;10.10;73.10
4306;DHT22;2166;49.926;8.608;2023-03-14T14:57:25;10.00;73.50
4306;DHT22;2166;49.926;8.608;2023-03-14T15:00:03;9.80;73.40
4306;DHT22;2166;49.926;8.608;2023-03-14T15:02:58;9.70;73.70
4306;DHT22;2166;49.926;8.608;2023-03-14T15:05:33;9.50;73.70
4306;DHT22;2166;49.926;8.608;2023-03-14T15:08:07;9.50;73.50
4306;DHT22;2166;49.926;8.608;2023-03-14T15:10:42;9.50;73.20
4306;DHT22;2166;49.926;8.608;2023-03-14T15:13:10;9.50;74.00
4306;DHT22;2166;49.926;8.608;2023-03-14T15:15:44;9.60;73.40
4306;DHT22;2166;49.926;8.608;2023-03-14T15:18:17;9.70;74.00
4306;DHT22;2166;49.926;8.608;2023-03-14T15:20:49;9.60;74.80
4306;DHT22;2166;49.926;8.608;2023-03-14T15:23:20;9.40;75.20
4306;DHT22;2166;49.926;8.608;2023-03-14T15:25:52;9.30;75.80
4306;DHT22;2166;49.926;8.608;2023-03-14T15:28:22;9.10;76.20
4306;DHT22;2166;49.926;8.608;2023-03-14T15:30:59;9.00;76.10
4306;DHT22;2166;49.926;8.608;2023-03-14T15:33:31;8.80;76.40
4306;DHT22;2166;49.926;8.608;2023-03-14T15:35:59;8.70;76.60
4306;DHT22;2166;49.926;8.608;2023-03-14T15:38:30;8.70;76.70
4306;DHT22;2166;49.926;8.608;2023-03-14T15:41:00;8.60;77.20
4306;DHT22;2166;49.926;8.608;2023-03-14T15:43:29;8.50;77.40
4306;DHT22;2166;49.926;8.608;2023-03-14T15:46:02;8.50;77.20
4306;DHT22;2166;49.926;8.608;2023-03-14T15:48:35;8.60;77.00
4306;DHT22;2166;49.926;8.608;2023-03-14T15:51:03;8.80;76.80
4306;DHT22;2166;49.926;8.608;2023-03-14T15:53:33;9.10;76.30
4306;DHT22;2166;49.926;8.608;2023-03-14T15:56:03;9.60;75.80
4306;DHT22;2166;49.926;8.608;2023-03-14T15:58:32;9.70;75.00
4306;DHT22;2166;49.926;8.608;2023-03-14T16:01:04;9.80;74.80
4306;DHT22;2166;49.926;8.608;2023-03-14T16:03:36;9.70;74.70
4306;DHT22;2166;49.926;8.608;2023-03-14T16:06:12;9.80;75.20
4306;DHT22;2166;49.926;8.608;2023-03-14T16:08:43;9.60;74.90
4306;DHT22;2166;49.926;8.608;2023-03-14T16:11:13;9.40;75.20
4306;DHT22;2166;49.926;8.608;2023-03-14T16:13:46;9.30;75.60
4306;DHT22;2166;49.926;8.608;2023-03-14T16:16:20;9.00;75.40
4306;DHT22;2166;49.926;8.608;2023-03-14T16:18:49;9.00;75.90
4306;DHT22;2166;49.926;8.608;2023-03-14T16:21:19;8.80;75.90
4306;DHT22;2166;49.926;8.608;2023-03-14T16:23:48;8.80;76.00
4306;DHT22;2166;49.926;8.608;2023-03-14T16:26:19;8.80;75.90
4306;DHT22;2166;49.926;8.608;2023-03-14T16:28:47;8.60;76.00
4306;DHT22;2166;49.926;8.608;2023-03-14T16:31:16;8.50;76.30
4306;DHT22;2166;49.926;8.608;2023-03-14T16:33:48;8.40;76.30
4306;DHT22;2166;49.926;8.608;2023-03-14T16:36:17;8.30;76.30
4306;DHT22;2166;49.926;8.608;2023-03-14T16:38:46;8.20;76.60
4306;DHT22;2166;49.926;8.608;2023-03-14T16:41:16;8.10;76.80
4306;DHT22;2166;49.926;8.608;2023-03-14T16:43:45;8.10;76.80
4306;DHT22;2166;49.926;8.608;2023-03-14T16:46:17;8.10;76.80
4306;DHT22;2166;49.926;8.608;2023-03-14T16:48:49;8.20;76.70
4306;DHT22;2166;49.926;8.608;2023-03-14T16:51:18;8.10;76.80
4306;DHT22;2166;49.926;8.608;2023-03-14T16:53:46;8.00;76.80
4306;DHT22;2166;49.926;8.608;2023-03-14T16:56:15;7.80;76.90
4306;DHT22;2166;49.926;8.608;2023-03-14T16:58:43;7.70;77.20
4306;DHT22;2166;49.926;8.608;2023-03-14T17:01:13;7.70;77.30
4306;DHT22;2166;49.926;8.608;2023-03-14T17:03:44;7.60;77.40
4306;DHT22;2166;49.926;8.608;2023-03-14T17:06:16;7.60;77.30
4306;DHT22;2166;49.926;8.608;2023-03-14T17:08:46;7.50;77.30
4306;DHT22;2166;49.926;8.608;2023-03-14T17:11:15;7.50;77.70
4306;DHT22;2166;49.926;8.608;2023-03-14T17:13:43;7.30;77.60
4306;DHT22;2166;49.926;8.608;2023-03-14T17:16:12;7.20;77.40
4306;DHT22;2166;49.926;8.608;2023-03-14T17:18:42;7.10;77.60
4306;DHT22;2166;49.926;8.608;2023-03-14T17:21:10;7.00;77.90
4306;DHT22;2166;49.926;8.608;2023-03-14T17:23:41;6.70;78.60